Bookmark and Share
Track history (hours):
 

Ville De Bordeaux

Last reported at 2014-Apr-12 01:04 UTC. Time now 2014-Apr-18 16:20 UTC.
Position N 38°24' E 007°03'.

Length 150 m; beam 24 m.

Type: Ship. MMSI: 228084000.

NotesDate/timePositionNaut miles runAvg speedWind from/ knotsBaromVisibWave heightAir tempDewpointWater temp
2014-Apr-12 01:04N 38°24' E 007°03'6016.7
2014-Apr-11 21:29N 38°40' E 008°17'2217.1
2014-Apr-11 20:14N 38°45' E 008°43'1116.8
2014-Apr-11 19:33N 38°48' E 008°57'1716.8
2014-Apr-11 18:33N 38°54' E 009°18'23516.8
2014-Apr-11 04:33N 40°37' E 013°53'1616.3
2014-Apr-11 03:33N 40°45' E 014°12'6 0.7
2014-Apr-10 19:05N 40°49' E 014°17'713.0
2014-Apr-10 18:33N 40°45' E 014°10'2016.9
2014-Apr-10 17:24N 40°36' E 013°47'22613.3
2014-Apr-10 00:23N 38°56' E 009°24'910.2
2014-Apr-09 23:33N 38°53' E 009°14'1010.3
2014-Apr-09 22:33N 38°50' E 009°02'1010.4
2014-Apr-09 21:33N 38°46' E 008°49'2610.5
2014-Apr-09 19:04N 38°39' E 008°17'28010.5
2014-Apr-08 16:17N 37°25' E 002°34'810.6
2014-Apr-08 15:33N 37°23' E 002°25'1010.2
2014-Apr-08 14:32N 37°20' E 002°12'10 9.9
2014-Apr-08 13:33N 37°18' E 002°00'1410.2
2014-Apr-08 12:12N 37°14' E 001°43'54511.8
2014-Apr-06 14:03N 37°21' W 009°41'1016.7
2014-Apr-06 13:26N 37°30' W 009°44'  

Dump ship's entire track history

sailing weather and tide predictions

Ville De Bordeaux — FZCE — position and weather